sensor_id;sensor_type;location;lat;lon;timestamp;temperature;humidity
53146;DHT22;39042;53.150;5.898;2024-01-30T00:01:51;5.60;99.90
53146;DHT22;39042;53.150;5.898;2024-01-30T00:04:16;5.50;99.90
53146;DHT22;39042;53.150;5.898;2024-01-30T00:06:43;5.50;99.90
53146;DHT22;39042;53.150;5.898;2024-01-30T00:09:09;5.50;99.90
53146;DHT22;39042;53.150;5.898;2024-01-30T00:11:37;5.50;99.90
53146;DHT22;39042;53.150;5.898;2024-01-30T00:14:04;5.50;99.90
53146;DHT22;39042;53.150;5.898;2024-01-30T00:16:29;5.50;99.90
53146;DHT22;39042;53.150;5.898;2024-01-30T00:18:55;5.60;99.90
53146;DHT22;39042;53.150;5.898;2024-01-30T00:21:22;5.60;99.90
53146;DHT22;39042;53.150;5.898;2024-01-30T00:23:48;5.60;99.90
53146;DHT22;39042;53.150;5.898;2024-01-30T00:26:14;5.60;99.90
53146;DHT22;39042;53.150;5.898;2024-01-30T00:28:43;5.60;99.90
53146;DHT22;39042;53.150;5.898;2024-01-30T00:31:09;5.70;99.90
53146;DHT22;39042;53.150;5.898;2024-01-30T00:33:41;5.60;99.90
53146;DHT22;39042;53.150;5.898;2024-01-30T00:36:08;5.60;99.90
53146;DHT22;39042;53.150;5.898;2024-01-30T00:38:34;5.60;99.90
53146;DHT22;39042;53.150;5.898;2024-01-30T00:41:01;5.60;99.90
53146;DHT22;39042;53.150;5.898;2024-01-30T00:43:30;5.60;99.90
53146;DHT22;39042;53.150;5.898;2024-01-30T00:45:57;5.60;99.90
53146;DHT22;39042;53.150;5.898;2024-01-30T00:48:23;5.60;99.90
53146;DHT22;39042;53.150;5.898;2024-01-30T00:50:49;5.60;99.90
53146;DHT22;39042;53.150;5.898;2024-01-30T00:53:15;5.60;99.90
53146;DHT22;39042;53.150;5.898;2024-01-30T00:55:41;5.60;99.90
53146;DHT22;39042;53.150;5.898;2024-01-30T00:58:07;5.60;99.90
53146;DHT22;39042;53.150;5.898;2024-01-30T01:00:33;5.60;99.90
53146;DHT22;39042;53.150;5.898;2024-01-30T01:02:59;5.50;99.90
53146;DHT22;39042;53.150;5.898;2024-01-30T01:05:25;5.50;99.90
53146;DHT22;39042;53.150;5.898;2024-01-30T01:07:51;5.50;99.90
53146;DHT22;39042;53.150;5.898;2024-01-30T01:10:17;5.50;99.90
53146;DHT22;39042;53.150;5.898;2024-01-30T01:12:44;5.50;99.90
53146;DHT22;39042;53.150;5.898;2024-01-30T01:15:10;5.50;99.90
53146;DHT22;39042;53.150;5.898;2024-01-30T01:17:39;5.50;99.90
53146;DHT22;39042;53.150;5.898;2024-01-30T01:20:06;5.50;99.90
53146;DHT22;39042;53.150;5.898;2024-01-30T01:22:32;5.50;99.90
53146;DHT22;39042;53.150;5.898;2024-01-30T01:24:59;5.50;99.90
53146;DHT22;39042;53.150;5.898;2024-01-30T01:27:25;5.40;99.90
53146;DHT22;39042;53.150;5.898;2024-01-30T01:29:51;5.40;99.90
53146;DHT22;39042;53.150;5.898;2024-01-30T01:32:17;5.40;99.90
53146;DHT22;39042;53.150;5.898;2024-01-30T01:34:43;5.50;99.90
53146;DHT22;39042;53.150;5.898;2024-01-30T01:37:09;5.50;99.90
53146;DHT22;39042;53.150;5.898;2024-01-30T01:39:35;5.50;99.90
53146;DHT22;39042;53.150;5.898;2024-01-30T01:42:01;5.50;99.90
53146;DHT22;39042;53.150;5.898;2024-01-30T01:44:27;5.50;99.90
53146;DHT22;39042;53.150;5.898;2024-01-30T01:46:54;5.50;99.90
53146;DHT22;39042;53.150;5.898;2024-01-30T01:49:20;5.60;99.90
53146;DHT22;39042;53.150;5.898;2024-01-30T01:51:47;5.50;99.90
53146;DHT22;39042;53.150;5.898;2024-01-30T01:54:14;5.60;99.90
53146;DHT22;39042;53.150;5.898;2024-01-30T01:56:42;5.50;99.90
53146;DHT22;39042;53.150;5.898;2024-01-30T01:59:08;5.50;99.90
53146;DHT22;39042;53.150;5.898;2024-01-30T02:01:36;5.50;99.90
53146;DHT22;39042;53.150;5.898;2024-01-30T02:04:02;5.50;99.90
53146;DHT22;39042;53.150;5.898;2024-01-30T02:06:28;5.50;99.90
53146;DHT22;39042;53.150;5.898;2024-01-30T02:08:55;5.50;99.90
53146;DHT22;39042;53.150;5.898;2024-01-30T02:11:22;5.60;99.90
53146;DHT22;39042;53.150;5.898;2024-01-30T02:13:48;5.50;99.90
53146;DHT22;39042;53.150;5.898;2024-01-30T02:16:14;5.60;99.90
53146;DHT22;39042;53.150;5.898;2024-01-30T02:18:40;5.60;99.90
53146;DHT22;39042;53.150;5.898;2024-01-30T02:21:14;5.60;99.90
53146;DHT22;39042;53.150;5.898;2024-01-30T02:23:40;5.70;99.90
53146;DHT22;39042;53.150;5.898;2024-01-30T02:26:06;5.70;99.90
53146;DHT22;39042;53.150;5.898;2024-01-30T02:28:32;5.80;99.90
53146;DHT22;39042;53.150;5.898;2024-01-30T02:30:58;5.80;99.90
53146;DHT22;39042;53.150;5.898;2024-01-30T02:33:24;5.80;99.90
53146;DHT22;39042;53.150;5.898;2024-01-30T02:35:50;5.90;99.90
53146;DHT22;39042;53.150;5.898;2024-01-30T02:38:16;5.90;99.90
53146;DHT22;39042;53.150;5.898;2024-01-30T02:40:42;5.90;99.90
53146;DHT22;39042;53.150;5.898;2024-01-30T02:43:08;5.90;99.90
53146;DHT22;39042;53.150;5.898;2024-01-30T02:45:34;5.90;99.90
53146;DHT22;39042;53.150;5.898;2024-01-30T02:47:59;5.90;99.90
53146;DHT22;39042;53.150;5.898;2024-01-30T02:50:25;5.90;99.90
53146;DHT22;39042;53.150;5.898;2024-01-30T02:52:51;6.00;99.90
53146;DHT22;39042;53.150;5.898;2024-01-30T02:55:17;6.00;99.90
53146;DHT22;39042;53.150;5.898;2024-01-30T02:57:46;6.00;99.90
53146;DHT22;39042;53.150;5.898;2024-01-30T03:00:12;6.00;99.90
53146;DHT22;39042;53.150;5.898;2024-01-30T03:02:38;6.00;99.90
53146;DHT22;39042;53.150;5.898;2024-01-30T03:05:05;6.10;99.90
53146;DHT22;39042;53.150;5.898;2024-01-30T03:07:31;6.00;99.90
53146;DHT22;39042;53.150;5.898;2024-01-30T03:09:57;6.10;99.90
53146;DHT22;39042;53.150;5.898;2024-01-30T03:12:22;6.10;99.90
53146;DHT22;39042;53.150;5.898;2024-01-30T03:14:48;6.10;99.90
53146;DHT22;39042;53.150;5.898;2024-01-30T03:17:15;6.10;99.90
53146;DHT22;39042;53.150;5.898;2024-01-30T03:19:41;6.20;99.90
53146;DHT22;39042;53.150;5.898;2024-01-30T03:22:07;6.20;99.90
53146;DHT22;39042;53.150;5.898;2024-01-30T03:24:32;6.20;99.90
53146;DHT22;39042;53.150;5.898;2024-01-30T03:26:58;6.10;99.90
53146;DHT22;39042;53.150;5.898;2024-01-30T03:29:24;6.10;99.90
53146;DHT22;39042;53.150;5.898;2024-01-30T03:31:50;6.00;99.90
53146;DHT22;39042;53.150;5.898;2024-01-30T03:34:16;6.00;99.90
53146;DHT22;39042;53.150;5.898;2024-01-30T03:36:42;5.90;99.90
53146;DHT22;39042;53.150;5.898;2024-01-30T03:39:08;5.90;99.90
53146;DHT22;39042;53.150;5.898;2024-01-30T03:41:33;5.90;99.90
53146;DHT22;39042;53.150;5.898;2024-01-30T03:43:59;5.90;99.90
53146;DHT22;39042;53.150;5.898;2024-01-30T03:46:25;5.90;99.90
53146;DHT22;39042;53.150;5.898;2024-01-30T03:48:51;5.90;99.90
53146;DHT22;39042;53.150;5.898;2024-01-30T03:51:16;5.90;99.90
53146;DHT22;39042;53.150;5.898;2024-01-30T03:53:43;5.90;99.90
53146;DHT22;39042;53.150;5.898;2024-01-30T03:56:09;6.00;99.90
53146;DHT22;39042;53.150;5.898;2024-01-30T03:58:35;6.00;99.90
53146;DHT22;39042;53.150;5.898;2024-01-30T04:01:01;6.10;99.90
53146;DHT22;39042;53.150;5.898;2024-01-30T04:03:27;6.10;99.90
53146;DHT22;39042;53.150;5.898;2024-01-30T04:05:53;6.10;99.90
53146;DHT22;39042;53.150;5.898;2024-01-30T04:08:19;6.10;99.90
53146;DHT22;39042;53.150;5.898;2024-01-30T04:10:46;6.10;99.90
53146;DHT22;39042;53.150;5.898;2024-01-30T04:13:12;6.10;99.90
53146;DHT22;39042;53.150;5.898;2024-01-30T04:15:38;6.20;99.90
53146;DHT22;39042;53.150;5.898;2024-01-30T04:18:05;6.20;99.90
53146;DHT22;39042;53.150;5.898;2024-01-30T04:20:30;6.20;99.90
53146;DHT22;39042;53.150;5.898;2024-01-30T04:22:56;6.30;99.90
53146;DHT22;39042;53.150;5.898;2024-01-30T04:25:22;6.30;99.90
53146;DHT22;39042;53.150;5.898;2024-01-30T04:27:48;6.40;99.90
53146;DHT22;39042;53.150;5.898;2024-01-30T04:30:14;6.40;99.90
53146;DHT22;39042;53.150;5.898;2024-01-30T04:32:40;6.50;99.90
53146;DHT22;39042;53.150;5.898;2024-01-30T04:35:06;6.50;99.90
53146;DHT22;39042;53.150;5.898;2024-01-30T04:37:32;6.60;99.90
53146;DHT22;39042;53.150;5.898;2024-01-30T04:39:58;6.60;99.90
53146;DHT22;39042;53.150;5.898;2024-01-30T04:42:24;6.60;99.90
53146;DHT22;39042;53.150;5.898;2024-01-30T04:44:50;6.60;99.90
53146;DHT22;39042;53.150;5.898;2024-01-30T04:47:16;6.60;99.90
53146;DHT22;39042;53.150;5.898;2024-01-30T04:49:42;6.60;99.90
53146;DHT22;39042;53.150;5.898;2024-01-30T04:52:08;6.60;99.90
53146;DHT22;39042;53.150;5.898;2024-01-30T04:54:35;6.70;99.90
53146;DHT22;39042;53.150;5.898;2024-01-30T04:57:04;6.70;99.90
53146;DHT22;39042;53.150;5.898;2024-01-30T04:59:34;6.70;99.90
53146;DHT22;39042;53.150;5.898;2024-01-30T05:01:59;6.70;99.90
53146;DHT22;39042;53.150;5.898;2024-01-30T05:04:25;6.70;99.90
53146;DHT22;39042;53.150;5.898;2024-01-30T05:06:51;6.70;99.90
53146;DHT22;39042;53.150;5.898;2024-01-30T05:09:17;6.70;99.90
53146;DHT22;39042;53.150;5.898;2024-01-30T05:11:43;6.70;99.90
53146;DHT22;39042;53.150;5.898;2024-01-30T05:14:08;6.80;99.90
53146;DHT22;39042;53.150;5.898;2024-01-30T05:16:35;6.80;99.90
53146;DHT22;39042;53.150;5.898;2024-01-30T05:19:01;6.80;99.90
53146;DHT22;39042;53.150;5.898;2024-01-30T05:21:26;6.70;99.90
53146;DHT22;39042;53.150;5.898;2024-01-30T05:23:52;6.70;99.90
53146;DHT22;39042;53.150;5.898;2024-01-30T05:26:18;6.70;99.90
53146;DHT22;39042;53.150;5.898;2024-01-30T05:28:44;6.80;99.90
53146;DHT22;39042;53.150;5.898;2024-01-30T05:31:10;6.80;99.90
53146;DHT22;39042;53.150;5.898;2024-01-30T05:33:36;6.80;99.90
53146;DHT22;39042;53.150;5.898;2024-01-30T05:36:02;6.80;99.90
53146;DHT22;39042;53.150;5.898;2024-01-30T05:38:29;6.70;99.90
53146;DHT22;39042;53.150;5.898;2024-01-30T05:40:55;6.80;99.90
53146;DHT22;39042;53.150;5.898;2024-01-30T05:43:21;6.80;99.90
53146;DHT22;39042;53.150;5.898;2024-01-30T05:45:46;6.80;99.90
53146;DHT22;39042;53.150;5.898;2024-01-30T05:48:12;6.80;99.90
53146;DHT22;39042;53.150;5.898;2024-01-30T05:50:38;6.80;99.90
53146;DHT22;39042;53.150;5.898;2024-01-30T05:53:04;6.80;99.90
53146;DHT22;39042;53.150;5.898;2024-01-30T05:55:30;6.80;99.90
53146;DHT22;39042;53.150;5.898;2024-01-30T05:57:55;6.80;99.90
53146;DHT22;39042;53.150;5.898;2024-01-30T06:00:21;6.80;99.90
53146;DHT22;39042;53.150;5.898;2024-01-30T06:02:47;6.80;99.90
53146;DHT22;39042;53.150;5.898;2024-01-30T06:05:13;6.80;99.90
53146;DHT22;39042;53.150;5.898;2024-01-30T06:07:39;6.80;99.90
53146;DHT22;39042;53.150;5.898;2024-01-30T06:10:05;6.80;99.90
53146;DHT22;39042;53.150;5.898;2024-01-30T06:12:31;6.80;99.90
53146;DHT22;39042;53.150;5.898;2024-01-30T06:14:57;6.80;99.90
53146;DHT22;39042;53.150;5.898;2024-01-30T06:17:23;6.80;99.90
53146;DHT22;39042;53.150;5.898;2024-01-30T06:19:49;6.80;99.90
53146;DHT22;39042;53.150;5.898;2024-01-30T06:22:16;6.80;99.90
53146;DHT22;39042;53.150;5.898;2024-01-30T06:24:42;6.80;99.90
53146;DHT22;39042;53.150;5.898;2024-01-30T06:27:10;6.80;99.90
53146;DHT22;39042;53.150;5.898;2024-01-30T06:29:36;6.80;99.90
53146;DHT22;39042;53.150;5.898;2024-01-30T06:32:02;6.90;99.90
53146;DHT22;39042;53.150;5.898;2024-01-30T06:34:28;6.90;99.90
53146;DHT22;39042;53.150;5.898;2024-01-30T06:36:54;6.90;99.90
53146;DHT22;39042;53.150;5.898;2024-01-30T06:39:20;6.90;99.90
53146;DHT22;39042;53.150;5.898;2024-01-30T06:41:46;6.90;99.90
53146;DHT22;39042;53.150;5.898;2024-01-30T06:44:12;6.90;99.90
53146;DHT22;39042;53.150;5.898;2024-01-30T06:46:38;6.90;99.90
53146;DHT22;39042;53.150;5.898;2024-01-30T06:49:04;6.90;99.90
53146;DHT22;39042;53.150;5.898;2024-01-30T06:51:31;7.00;99.90
53146;DHT22;39042;53.150;5.898;2024-01-30T06:53:56;7.00;99.90
53146;DHT22;39042;53.150;5.898;2024-01-30T06:56:22;7.00;99.90
53146;DHT22;39042;53.150;5.898;2024-01-30T06:58:49;7.00;99.90
53146;DHT22;39042;53.150;5.898;2024-01-30T07:01:15;7.00;99.90
53146;DHT22;39042;53.150;5.898;2024-01-30T07:03:41;7.10;99.90
53146;DHT22;39042;53.150;5.898;2024-01-30T07:06:08;7.10;99.90
53146;DHT22;39042;53.150;5.898;2024-01-30T07:08:34;7.10;99.90
53146;DHT22;39042;53.150;5.898;2024-01-30T07:11:00;7.00;99.90
53146;DHT22;39042;53.150;5.898;2024-01-30T07:13:27;7.10;99.90
53146;DHT22;39042;53.150;5.898;2024-01-30T07:15:54;7.10;99.90
53146;DHT22;39042;53.150;5.898;2024-01-30T07:18:20;7.10;99.90
53146;DHT22;39042;53.150;5.898;2024-01-30T07:20:45;7.10;99.90
53146;DHT22;39042;53.150;5.898;2024-01-30T07:23:13;7.10;99.90
53146;DHT22;39042;53.150;5.898;2024-01-30T07:25:40;7.10;99.90
53146;DHT22;39042;53.150;5.898;2024-01-30T07:28:10;7.20;99.90
53146;DHT22;39042;53.150;5.898;2024-01-30T07:30:36;7.20;99.90
53146;DHT22;39042;53.150;5.898;2024-01-30T07:33:02;7.20;99.90
53146;DHT22;39042;53.150;5.898;2024-01-30T07:35:28;7.20;99.90
53146;DHT22;39042;53.150;5.898;2024-01-30T07:37:54;7.30;99.90
53146;DHT22;39042;53.150;5.898;2024-01-30T07:40:20;7.30;99.90
53146;DHT22;39042;53.150;5.898;2024-01-30T07:42:45;7.30;99.90
53146;DHT22;39042;53.150;5.898;2024-01-30T07:45:11;7.30;99.90
53146;DHT22;39042;53.150;5.898;2024-01-30T07:47:37;7.30;99.90
53146;DHT22;39042;53.150;5.898;2024-01-30T07:50:03;7.30;99.90
53146;DHT22;39042;53.150;5.898;2024-01-30T07:52:29;7.30;99.90
53146;DHT22;39042;53.150;5.898;2024-01-30T07:54:56;7.40;99.90
53146;DHT22;39042;53.150;5.898;2024-01-30T07:57:22;7.40;99.90
53146;DHT22;39042;53.150;5.898;2024-01-30T07:59:48;7.40;99.90
53146;DHT22;39042;53.150;5.898;2024-01-30T08:02:14;7.40;99.90
53146;DHT22;39042;53.150;5.898;2024-01-30T08:04:39;7.40;99.90
53146;DHT22;39042;53.150;5.898;2024-01-30T08:07:05;7.40;99.90
53146;DHT22;39042;53.150;5.898;2024-01-30T08:09:31;7.50;99.90
53146;DHT22;39042;53.150;5.898;2024-01-30T08:11:57;7.50;99.90
53146;DHT22;39042;53.150;5.898;2024-01-30T08:14:23;7.50;99.90
53146;DHT22;39042;53.150;5.898;2024-01-30T08:16:48;7.50;99.90
53146;DHT22;39042;53.150;5.898;2024-01-30T08:19:15;7.60;99.90
53146;DHT22;39042;53.150;5.898;2024-01-30T08:21:41;7.60;99.90
53146;DHT22;39042;53.150;5.898;2024-01-30T08:24:07;7.70;99.90
53146;DHT22;39042;53.150;5.898;2024-01-30T08:26:33;7.80;99.90
53146;DHT22;39042;53.150;5.898;2024-01-30T08:28:59;7.80;99.90
53146;DHT22;39042;53.150;5.898;2024-01-30T08:31:25;7.80;99.90
53146;DHT22;39042;53.150;5.898;2024-01-30T08:33:51;7.90;99.90
53146;DHT22;39042;53.150;5.898;2024-01-30T08:36:17;8.00;99.90
53146;DHT22;39042;53.150;5.898;2024-01-30T08:38:43;8.00;99.90
53146;DHT22;39042;53.150;5.898;2024-01-30T08:41:09;8.10;99.90
53146;DHT22;39042;53.150;5.898;2024-01-30T08:43:35;8.20;99.90
53146;DHT22;39042;53.150;5.898;2024-01-30T08:46:02;8.30;99.90
53146;DHT22;39042;53.150;5.898;2024-01-30T08:48:29;8.50;99.90
53146;DHT22;39042;53.150;5.898;2024-01-30T08:50:55;8.60;99.90
53146;DHT22;39042;53.150;5.898;2024-01-30T08:53:21;8.60;99.90
53146;DHT22;39042;53.150;5.898;2024-01-30T08:55:47;8.80;99.90
53146;DHT22;39042;53.150;5.898;2024-01-30T08:58:12;8.80;99.90
53146;DHT22;39042;53.150;5.898;2024-01-30T09:00:38;8.90;99.90
53146;DHT22;39042;53.150;5.898;2024-01-30T09:03:04;8.90;99.90
53146;DHT22;39042;53.150;5.898;2024-01-30T09:05:30;9.00;99.90
53146;DHT22;39042;53.150;5.898;2024-01-30T09:07:56;9.00;99.90
53146;DHT22;39042;53.150;5.898;2024-01-30T09:10:22;9.10;99.90
53146;DHT22;39042;53.150;5.898;2024-01-30T09:12:48;9.20;99.90
53146;DHT22;39042;53.150;5.898;2024-01-30T09:15:15;9.20;99.90
53146;DHT22;39042;53.150;5.898;2024-01-30T09:17:40;9.30;99.90
53146;DHT22;39042;53.150;5.898;2024-01-30T09:20:07;9.30;99.90
53146;DHT22;39042;53.150;5.898;2024-01-30T09:22:33;9.40;99.90
53146;DHT22;39042;53.150;5.898;2024-01-30T09:24:58;9.40;99.90
53146;DHT22;39042;53.150;5.898;2024-01-30T09:27:24;9.50;99.90
53146;DHT22;39042;53.150;5.898;2024-01-30T09:29:50;9.50;99.90
53146;DHT22;39042;53.150;5.898;2024-01-30T09:32:16;9.50;99.90
53146;DHT22;39042;53.150;5.898;2024-01-30T09:34:43;9.60;99.90
53146;DHT22;39042;53.150;5.898;2024-01-30T09:37:09;9.60;99.90
53146;DHT22;39042;53.150;5.898;2024-01-30T09:39:35;9.70;99.90
53146;DHT22;39042;53.150;5.898;2024-01-30T09:42:25;9.70;99.90
53146;DHT22;39042;53.150;5.898;2024-01-30T09:44:53;9.70;99.90
53146;DHT22;39042;53.150;5.898;2024-01-30T09:47:19;9.70;99.90
53146;DHT22;39042;53.150;5.898;2024-01-30T09:49:45;9.70;99.90
53146;DHT22;39042;53.150;5.898;2024-01-30T09:52:12;9.70;99.90
53146;DHT22;39042;53.150;5.898;2024-01-30T09:54:38;9.70;99.90
53146;DHT22;39042;53.150;5.898;2024-01-30T09:57:04;9.70;99.90
53146;DHT22;39042;53.150;5.898;2024-01-30T09:59:31;9.60;99.90
53146;DHT22;39042;53.150;5.898;2024-01-30T10:01:57;9.60;99.90
53146;DHT22;39042;53.150;5.898;2024-01-30T10:04:23;9.60;99.90
53146;DHT22;39042;53.150;5.898;2024-01-30T10:06:50;9.60;99.90
53146;DHT22;39042;53.150;5.898;2024-01-30T10:09:16;9.60;99.90
53146;DHT22;39042;53.150;5.898;2024-01-30T10:11:42;9.60;99.90
53146;DHT22;39042;53.150;5.898;2024-01-30T10:14:08;9.60;99.90
53146;DHT22;39042;53.150;5.898;2024-01-30T10:16:35;9.60;99.90
53146;DHT22;39042;53.150;5.898;2024-01-30T10:19:01;9.60;99.90
53146;DHT22;39042;53.150;5.898;2024-01-30T10:21:27;9.60;99.90
53146;DHT22;39042;53.150;5.898;2024-01-30T10:23:53;9.60;99.90
53146;DHT22;39042;53.150;5.898;2024-01-30T10:26:19;9.60;99.90
53146;DHT22;39042;53.150;5.898;2024-01-30T10:28:44;9.60;99.90
53146;DHT22;39042;53.150;5.898;2024-01-30T10:31:10;9.60;99.90
53146;DHT22;39042;53.150;5.898;2024-01-30T10:33:36;9.70;99.90
53146;DHT22;39042;53.150;5.898;2024-01-30T10:36:06;9.70;99.90
53146;DHT22;39042;53.150;5.898;2024-01-30T10:38:32;9.70;99.90
53146;DHT22;39042;53.150;5.898;2024-01-30T10:41:00;9.70;99.90
53146;DHT22;39042;53.150;5.898;2024-01-30T10:43:36;9.70;99.90
53146;DHT22;39042;53.150;5.898;2024-01-30T10:46:13;9.70;99.90
53146;DHT22;39042;53.150;5.898;2024-01-30T10:48:59;9.70;99.90
53146;DHT22;39042;53.150;5.898;2024-01-30T10:51:26;9.70;99.90
53146;DHT22;39042;53.150;5.898;2024-01-30T10:53:53;9.60;99.90
53146;DHT22;39042;53.150;5.898;2024-01-30T10:56:22;9.60;99.90
53146;DHT22;39042;53.150;5.898;2024-01-30T10:58:52;9.60;99.90
53146;DHT22;39042;53.150;5.898;2024-01-30T11:01:22;9.60;99.90
53146;DHT22;39042;53.150;5.898;2024-01-30T11:03:51;9.60;99.90
53146;DHT22;39042;53.150;5.898;2024-01-30T11:06:17;9.60;99.90
53146;DHT22;39042;53.150;5.898;2024-01-30T11:09:03;9.60;99.90
53146;DHT22;39042;53.150;5.898;2024-01-30T11:12:02;9.60;99.90
53146;DHT22;39042;53.150;5.898;2024-01-30T11:14:31;9.60;99.90
53146;DHT22;39042;53.150;5.898;2024-01-30T11:16:58;9.60;99.90
53146;DHT22;39042;53.150;5.898;2024-01-30T11:19:25;9.60;99.90
53146;DHT22;39042;53.150;5.898;2024-01-30T11:21:52;9.60;99.90
53146;DHT22;39042;53.150;5.898;2024-01-30T11:24:25;9.60;99.90
53146;DHT22;39042;53.150;5.898;2024-01-30T11:26:59;9.60;99.90
53146;DHT22;39042;53.150;5.898;2024-01-30T11:29:25;9.60;99.90
53146;DHT22;39042;53.150;5.898;2024-01-30T11:31:57;9.70;99.90
53146;DHT22;39042;53.150;5.898;2024-01-30T11:34:23;9.70;99.90
53146;DHT22;39042;53.150;5.898;2024-01-30T11:36:56;9.70;99.90
53146;DHT22;39042;53.150;5.898;2024-01-30T11:39:26;9.70;99.90
53146;DHT22;39042;53.150;5.898;2024-01-30T11:41:53;9.70;99.90
53146;DHT22;39042;53.150;5.898;2024-01-30T11:44:20;9.70;99.90
53146;DHT22;39042;53.150;5.898;2024-01-30T11:46:52;9.60;99.90
53146;DHT22;39042;53.150;5.898;2024-01-30T11:49:19;9.60;99.90
53146;DHT22;39042;53.150;5.898;2024-01-30T11:51:48;9.50;99.90
53146;DHT22;39042;53.150;5.898;2024-01-30T11:54:18;9.50;99.90
53146;DHT22;39042;53.150;5.898;2024-01-30T11:56:44;9.40;99.90
53146;DHT22;39042;53.150;5.898;2024-01-30T11:59:09;9.40;99.90
53146;DHT22;39042;53.150;5.898;2024-01-30T12:01:36;9.40;99.90
53146;DHT22;39042;53.150;5.898;2024-01-30T12:04:02;9.40;99.90
53146;DHT22;39042;53.150;5.898;2024-01-30T12:06:28;9.40;99.90
53146;DHT22;39042;53.150;5.898;2024-01-30T12:09:02;9.40;99.90
53146;DHT22;39042;53.150;5.898;2024-01-30T12:11:43;9.50;99.90
53146;DHT22;39042;53.150;5.898;2024-01-30T12:14:09;9.60;99.90
53146;DHT22;39042;53.150;5.898;2024-01-30T12:16:35;9.60;99.90
53146;DHT22;39042;53.150;5.898;2024-01-30T12:19:01;9.60;99.90
53146;DHT22;39042;53.150;5.898;2024-01-30T12:21:28;9.60;99.90
53146;DHT22;39042;53.150;5.898;2024-01-30T12:23:54;9.60;99.90
53146;DHT22;39042;53.150;5.898;2024-01-30T12:26:20;9.60;99.90
53146;DHT22;39042;53.150;5.898;2024-01-30T12:28:49;9.60;99.90
53146;DHT22;39042;53.150;5.898;2024-01-30T12:31:16;9.60;99.90
53146;DHT22;39042;53.150;5.898;2024-01-30T12:33:41;9.60;99.90
53146;DHT22;39042;53.150;5.898;2024-01-30T12:36:07;9.60;99.90
53146;DHT22;39042;53.150;5.898;2024-01-30T12:38:33;9.70;99.90
53146;DHT22;39042;53.150;5.898;2024-01-30T12:40:59;9.60;99.90
53146;DHT22;39042;53.150;5.898;2024-01-30T12:43:25;9.70;99.90
53146;DHT22;39042;53.150;5.898;2024-01-30T12:45:55;9.70;99.90
53146;DHT22;39042;53.150;5.898;2024-01-30T12:48:21;9.60;99.90
53146;DHT22;39042;53.150;5.898;2024-01-30T12:50:46;9.60;99.90
53146;DHT22;39042;53.150;5.898;2024-01-30T12:53:12;9.60;99.90
53146;DHT22;39042;53.150;5.898;2024-01-30T12:55:38;9.60;99.90
53146;DHT22;39042;53.150;5.898;2024-01-30T12:58:04;9.60;99.90
53146;DHT22;39042;53.150;5.898;2024-01-30T13:00:31;9.60;99.90
53146;DHT22;39042;53.150;5.898;2024-01-30T13:02:58;9.50;99.90
53146;DHT22;39042;53.150;5.898;2024-01-30T13:05:24;9.50;99.90
53146;DHT22;39042;53.150;5.898;2024-01-30T13:07:50;9.50;99.90
53146;DHT22;39042;53.150;5.898;2024-01-30T13:10:17;9.40;99.90
53146;DHT22;39042;53.150;5.898;2024-01-30T13:12:43;9.40;99.90
53146;DHT22;39042;53.150;5.898;2024-01-30T13:15:09;9.40;99.90
53146;DHT22;39042;53.150;5.898;2024-01-30T13:17:36;9.40;99.90
53146;DHT22;39042;53.150;5.898;2024-01-30T13:20:02;9.30;99.90
53146;DHT22;39042;53.150;5.898;2024-01-30T13:22:29;9.30;99.90
53146;DHT22;39042;53.150;5.898;2024-01-30T13:24:55;9.30;99.90
53146;DHT22;39042;53.150;5.898;2024-01-30T13:27:21;9.30;99.90
53146;DHT22;39042;53.150;5.898;2024-01-30T13:29:47;9.20;99.90
53146;DHT22;39042;53.150;5.898;2024-01-30T13:32:13;9.20;99.90
53146;DHT22;39042;53.150;5.898;2024-01-30T13:34:38;9.10;99.90
53146;DHT22;39042;53.150;5.898;2024-01-30T13:37:05;9.10;99.90
53146;DHT22;39042;53.150;5.898;2024-01-30T13:39:31;9.10;99.90
53146;DHT22;39042;53.150;5.898;2024-01-30T13:41:57;9.00;99.90
53146;DHT22;39042;53.150;5.898;2024-01-30T13:44:23;8.90;99.90
53146;DHT22;39042;53.150;5.898;2024-01-30T13:46:49;8.90;99.90
53146;DHT22;39042;53.150;5.898;2024-01-30T13:49:14;8.90;99.90
53146;DHT22;39042;53.150;5.898;2024-01-30T13:51:40;8.90;99.90
53146;DHT22;39042;53.150;5.898;2024-01-30T13:54:06;8.90;99.90
53146;DHT22;39042;53.150;5.898;2024-01-30T13:56:32;8.80;99.90
53146;DHT22;39042;53.150;5.898;2024-01-30T13:58:58;8.80;99.90
53146;DHT22;39042;53.150;5.898;2024-01-30T14:01:25;8.80;99.90
53146;DHT22;39042;53.150;5.898;2024-01-30T14:03:51;8.80;99.90
53146;DHT22;39042;53.150;5.898;2024-01-30T14:06:17;8.80;99.90
53146;DHT22;39042;53.150;5.898;2024-01-30T14:08:43;8.90;99.90
53146;DHT22;39042;53.150;5.898;2024-01-30T14:11:09;8.80;99.90
53146;DHT22;39042;53.150;5.898;2024-01-30T14:13:35;8.80;99.90
53146;DHT22;39042;53.150;5.898;2024-01-30T14:16:01;8.80;99.90
53146;DHT22;39042;53.150;5.898;2024-01-30T14:18:27;8.80;99.90
53146;DHT22;39042;53.150;5.898;2024-01-30T14:20:53;8.70;99.90
53146;DHT22;39042;53.150;5.898;2024-01-30T14:23:20;8.70;99.90
53146;DHT22;39042;53.150;5.898;2024-01-30T14:25:45;8.70;99.90
53146;DHT22;39042;53.150;5.898;2024-01-30T14:28:11;8.70;99.90
53146;DHT22;39042;53.150;5.898;2024-01-30T14:30:37;8.60;99.90
53146;DHT22;39042;53.150;5.898;2024-01-30T14:33:03;8.60;99.90
53146;DHT22;39042;53.150;5.898;2024-01-30T14:35:29;8.60;99.90
53146;DHT22;39042;53.150;5.898;2024-01-30T14:37:55;8.60;99.90
53146;DHT22;39042;53.150;5.898;2024-01-30T14:40:21;8.60;99.90
53146;DHT22;39042;53.150;5.898;2024-01-30T14:42:47;8.60;99.90
53146;DHT22;39042;53.150;5.898;2024-01-30T14:45:13;8.60;99.90
53146;DHT22;39042;53.150;5.898;2024-01-30T14:47:39;8.60;99.90
53146;DHT22;39042;53.150;5.898;2024-01-30T14:50:05;8.60;99.90
53146;DHT22;39042;53.150;5.898;2024-01-30T14:52:31;8.60;99.90
53146;DHT22;39042;53.150;5.898;2024-01-30T14:54:57;8.60;99.90
53146;DHT22;39042;53.150;5.898;2024-01-30T14:57:24;8.70;99.90
53146;DHT22;39042;53.150;5.898;2024-01-30T14:59:50;8.70;99.90
53146;DHT22;39042;53.150;5.898;2024-01-30T15:02:16;8.60;99.90
53146;DHT22;39042;53.150;5.898;2024-01-30T15:04:43;8.70;99.90
53146;DHT22;39042;53.150;5.898;2024-01-30T15:07:08;8.70;99.90
53146;DHT22;39042;53.150;5.898;2024-01-30T15:09:34;8.60;99.90
53146;DHT22;39042;53.150;5.898;2024-01-30T15:12:00;8.60;99.90
53146;DHT22;39042;53.150;5.898;2024-01-30T15:14:26;8.60;99.90
53146;DHT22;39042;53.150;5.898;2024-01-30T15:16:52;8.60;99.90
53146;DHT22;39042;53.150;5.898;2024-01-30T15:19:18;8.60;99.90
53146;DHT22;39042;53.150;5.898;2024-01-30T15:21:44;8.50;99.90
53146;DHT22;39042;53.150;5.898;2024-01-30T15:24:09;8.50;99.90
53146;DHT22;39042;53.150;5.898;2024-01-30T15:26:38;8.50;99.90
53146;DHT22;39042;53.150;5.898;2024-01-30T15:29:04;8.50;99.90
53146;DHT22;39042;53.150;5.898;2024-01-30T15:31:30;8.40;99.90
53146;DHT22;39042;53.150;5.898;2024-01-30T15:33:56;8.30;99.90
53146;DHT22;39042;53.150;5.898;2024-01-30T15:36:22;8.30;99.90
53146;DHT22;39042;53.150;5.898;2024-01-30T15:38:48;8.20;99.90
53146;DHT22;39042;53.150;5.898;2024-01-30T15:41:14;8.20;99.90